createdAt,value
2023-03-08T00:00:43.511Z,-0.83
2023-03-08T00:03:45.317Z,-0.83
2023-03-08T00:06:47.398Z,-0.83
2023-03-08T00:09:49.469Z,-0.83
2023-03-08T00:12:51.091Z,-0.84
2023-03-08T00:15:54.141Z,-0.83
2023-03-08T00:18:55.947Z,-0.84
2023-03-08T00:21:58.180Z,-0.83
2023-03-08T00:24:59.968Z,-0.83
2023-03-08T00:28:01.636Z,-0.83
2023-03-08T00:31:07.447Z,-0.82
2023-03-08T00:34:09.392Z,-0.81
2023-03-08T00:37:15.185Z,-0.81
2023-03-08T00:40:16.969Z,-0.81
2023-03-08T00:43:18.911Z,-0.81
2023-03-08T00:46:22.157Z,-0.80
2023-03-08T00:49:23.806Z,-0.78
2023-03-08T00:52:26.264Z,-0.77
2023-03-08T00:55:27.962Z,-0.78
2023-03-08T00:58:31.022Z,-0.77
2023-03-08T01:01:34.197Z,-0.78
2023-03-08T01:04:36.181Z,-0.78
2023-03-08T01:10:52.189Z,-0.78
2023-03-08T01:13:54.648Z,-0.81
2023-03-08T01:17:00.855Z,-0.81
2023-03-08T01:20:04.330Z,-0.86
2023-03-08T01:23:06.164Z,-0.85
2023-03-08T01:26:08.778Z,-0.89
2023-03-08T01:29:10.537Z,-0.95
2023-03-08T01:32:13.874Z,-1.00
2023-03-08T01:35:15.710Z,-1.00
2023-03-08T01:38:17.394Z,-1.02
2023-03-08T01:41:20.385Z,-1.04
2023-03-08T01:44:25.017Z,-1.04
2023-03-08T01:47:30.974Z,-1.04
2023-03-08T01:50:54.872Z,-1.04
2023-03-08T01:53:57.811Z,-1.05
2023-03-08T01:57:02.640Z,-1.06
2023-03-08T02:00:08.017Z,-1.07
2023-03-08T02:03:16.438Z,-1.05
2023-03-08T02:06:19.415Z,-1.06
2023-03-08T02:09:21.488Z,-1.07
2023-03-08T02:12:23.461Z,-1.11
2023-03-08T02:15:25.201Z,-1.11
2023-03-08T02:18:31.983Z,-1.11
2023-03-08T02:21:34.085Z,-1.09
2023-03-08T02:24:36.985Z,-1.11
2023-03-08T02:27:39.737Z,-1.11
2023-03-08T02:30:41.405Z,-1.10
2023-03-08T02:33:43.287Z,-1.12
2023-03-08T02:36:45.071Z,-1.09
2023-03-08T02:39:51.837Z,-1.09
2023-03-08T02:42:57.984Z,-1.09
2023-03-08T02:45:59.730Z,-1.10
2023-03-08T02:49:01.336Z,-1.12
2023-03-08T02:52:03.129Z,-1.13
2023-03-08T02:55:05.109Z,-1.13
2023-03-08T02:58:08.792Z,-1.15
2023-03-08T03:01:11.425Z,-1.13
2023-03-08T03:04:13.207Z,-1.13
2023-03-08T03:07:15.036Z,-1.13
2023-03-08T03:10:16.843Z,-1.12
2023-03-08T03:13:20.681Z,-1.13
2023-03-08T03:16:22.869Z,-1.16
2023-03-08T03:19:24.572Z,-1.18
2023-03-08T03:22:26.347Z,-1.25
2023-03-08T03:25:28.119Z,-1.33
2023-03-08T03:28:31.687Z,-1.36
2023-03-08T03:31:35.368Z,-1.36
2023-03-08T03:34:37.491Z,-1.37
2023-03-08T03:37:39.349Z,-1.37
2023-03-08T03:40:42.374Z,-1.39
2023-03-08T03:43:46.754Z,-1.38
2023-03-08T03:46:49.270Z,-1.39
2023-03-08T03:49:56.612Z,-1.36
2023-03-08T03:53:00.005Z,-1.34
2023-03-08T03:56:04.878Z,-1.33
2023-03-08T03:59:08.826Z,-1.34
2023-03-08T04:02:11.152Z,-1.35
2023-03-08T04:05:27.976Z,-1.34
2023-03-08T04:08:31.164Z,-1.38
2023-03-08T04:11:34.492Z,-1.41
2023-03-08T04:14:39.638Z,-1.49
2023-03-08T04:17:43.197Z,-1.54
2023-03-08T04:20:45.602Z,-1.55
2023-03-08T04:23:48.188Z,-1.56
2023-03-08T04:26:50.849Z,-1.60
2023-03-08T04:29:56.196Z,-1.61
2023-03-08T04:32:58.589Z,-1.64
2023-03-08T04:36:06.981Z,-1.66
2023-03-08T04:39:09.405Z,-1.65
2023-03-08T04:42:11.437Z,-1.62
2023-03-08T04:45:15.354Z,-1.62
2023-03-08T04:48:19.478Z,-1.58
2023-03-08T04:51:23.157Z,-1.58
2023-03-08T04:54:25.072Z,-1.59
2023-03-08T04:57:35.199Z,-1.56
2023-03-08T05:00:38.647Z,-1.55
2023-03-08T05:03:41.365Z,-1.54
2023-03-08T05:06:43.358Z,-1.54
2023-03-08T05:09:48.901Z,-1.52
2023-03-08T05:12:50.875Z,-1.49
2023-03-08T05:15:54.875Z,-1.46
2023-03-08T05:18:56.983Z,-1.44
2023-03-08T05:22:03.309Z,-1.40
2023-03-08T05:25:06.233Z,-1.35
2023-03-08T05:28:08.097Z,-1.36
2023-03-08T05:31:13.518Z,-1.37
2023-03-08T05:34:17.204Z,-1.36
2023-03-08T05:37:27.415Z,-1.33
2023-03-08T05:40:31.533Z,-1.28
2023-03-08T05:43:35.575Z,-1.28
2023-03-08T05:46:41.724Z,-1.33
2023-03-08T05:49:46.196Z,-1.31
2023-03-08T05:52:48.802Z,-1.29
2023-03-08T05:55:56.409Z,-1.24
2023-03-08T05:58:58.639Z,-1.24
2023-03-08T06:02:04.350Z,-1.23
2023-03-08T06:05:11.819Z,-1.18
2023-03-08T06:08:13.868Z,-1.16
2023-03-08T06:11:16.128Z,-1.12
2023-03-08T06:14:20.527Z,-1.10
2023-03-08T06:17:24.179Z,-1.08
2023-03-08T06:20:27.329Z,-1.07
2023-03-08T06:23:31.268Z,-1.06
2023-03-08T06:26:33.023Z,-1.03
2023-03-08T06:29:34.851Z,-0.97
2023-03-08T06:32:39.198Z,-0.97
2023-03-08T06:35:42.308Z,-0.96
2023-03-08T06:38:44.351Z,-0.94
2023-03-08T06:41:46.000Z,-0.92
2023-03-08T06:44:48.976Z,-0.90
2023-03-08T06:47:52.502Z,-0.83
2023-03-08T06:50:54.667Z,-0.85
2023-03-08T06:53:56.450Z,-0.82
2023-03-08T06:57:01.449Z,-0.78
2023-03-08T07:00:04.370Z,-0.74
2023-03-08T07:03:07.528Z,-0.74
2023-03-08T07:06:09.898Z,-0.74
2023-03-08T07:09:13.258Z,-0.77
2023-03-08T07:12:15.251Z,-0.76
2023-03-08T07:15:19.062Z,-0.71
2023-03-08T07:18:28.899Z,-0.71
2023-03-08T07:21:30.722Z,-0.68
2023-03-08T07:24:32.637Z,-0.73
2023-03-08T07:27:34.602Z,-0.74
2023-03-08T07:30:36.504Z,-0.71
2023-03-08T07:33:39.825Z,-0.64
2023-03-08T07:36:41.775Z,-0.60
2023-03-08T07:39:43.685Z,-0.50
2023-03-08T07:46:00.499Z,-0.53
2023-03-08T07:49:10.561Z,-0.51
2023-03-08T07:52:12.333Z,-0.44
2023-03-08T07:55:14.441Z,-0.43
2023-03-08T07:58:16.147Z,-0.38
2023-03-08T08:01:17.914Z,-0.34
2023-03-08T08:04:23.474Z,-0.23
2023-03-08T08:07:25.528Z,-0.17
2023-03-08T08:10:27.480Z,-0.13
2023-03-08T08:13:29.214Z,-0.19
2023-03-08T08:16:33.642Z,-0.22
2023-03-08T08:19:37.690Z,-0.16
2023-03-08T08:22:39.462Z,-0.16
2023-03-08T08:25:41.230Z,-0.11
2023-03-08T08:28:43.384Z,-0.11
2023-03-08T08:31:45.239Z,-0.11
2023-03-08T08:34:48.807Z,-0.11
2023-03-08T08:37:50.460Z,-0.06
2023-03-08T08:40:52.390Z,0.00
2023-03-08T08:43:56.851Z,0.08
2023-03-08T08:46:58.658Z,0.15
2023-03-08T08:50:01.867Z,0.16
2023-03-08T08:53:03.720Z,0.19
2023-03-08T08:56:25.622Z,0.24
2023-03-08T08:59:28.394Z,0.19
2023-03-08T09:02:30.049Z,0.26
2023-03-08T09:05:34.072Z,0.25
2023-03-08T09:08:36.012Z,0.31
2023-03-08T09:11:51.969Z,0.32
2023-03-08T09:14:55.900Z,0.37
2023-03-08T09:17:57.681Z,0.44
2023-03-08T09:21:02.530Z,0.54
2023-03-08T09:24:05.901Z,0.61
2023-03-08T09:27:07.839Z,0.60
2023-03-08T09:30:10.674Z,0.72
2023-03-08T09:33:12.357Z,0.76
2023-03-08T09:42:55.473Z,0.89
2023-03-08T09:45:57.194Z,0.97
2023-03-08T09:49:01.216Z,1.02
2023-03-08T09:52:05.013Z,1.05
2023-03-08T09:55:12.461Z,1.02
2023-03-08T09:58:19.377Z,0.82
2023-03-08T10:01:24.855Z,0.77
2023-03-08T10:04:40.641Z,0.82
2023-03-08T10:07:50.031Z,1.03
2023-03-08T10:11:00.327Z,1.09
2023-03-08T10:14:09.641Z,1.05
2023-03-08T10:17:13.390Z,1.05
2023-03-08T10:20:18.932Z,1.05
2023-03-08T10:23:21.601Z,1.08
2023-03-08T10:26:25.255Z,1.12
2023-03-08T10:29:28.200Z,1.19
2023-03-08T10:32:30.318Z,1.28
2023-03-08T10:35:33.595Z,1.25
2023-03-08T10:38:36.383Z,1.23
2023-03-08T10:41:41.216Z,1.14
2023-03-08T10:44:46.051Z,1.21
2023-03-08T10:47:53.941Z,1.34
2023-03-08T10:51:00.127Z,1.26
2023-03-08T10:54:02.988Z,1.18
2023-03-08T10:57:04.805Z,1.15
2023-03-08T11:00:21.439Z,1.08
2023-03-08T11:03:24.276Z,1.10
2023-03-08T11:06:26.029Z,1.10
2023-03-08T11:09:28.790Z,1.14
2023-03-08T11:12:30.420Z,1.19
2023-03-08T11:15:35.159Z,1.26
2023-03-08T11:18:50.824Z,1.38
2023-03-08T11:21:55.317Z,1.39
2023-03-08T11:25:03.927Z,1.40
2023-03-08T11:28:12.818Z,1.30
2023-03-08T11:31:19.206Z,1.41
2023-03-08T11:34:34.922Z,1.51
2023-03-08T11:37:40.059Z,1.56
2023-03-08T11:40:48.497Z,1.37
2023-03-08T11:44:04.189Z,1.32
2023-03-08T11:47:34.799Z,1.32
2023-03-08T11:50:38.289Z,1.30
2023-03-08T11:53:50.142Z,1.16
2023-03-08T11:56:54.661Z,1.21
2023-03-08T11:59:57.933Z,1.36
2023-03-08T12:03:04.165Z,1.29
2023-03-08T12:06:22.772Z,1.23
2023-03-08T12:09:33.028Z,1.16
2023-03-08T12:12:37.201Z,1.25
2023-03-08T12:15:39.935Z,1.22
2023-03-08T12:18:48.850Z,1.22
2023-03-08T12:21:55.319Z,1.17
2023-03-08T12:25:01.264Z,1.17
2023-03-08T12:28:04.980Z,1.11
2023-03-08T12:31:26.641Z,0.98
2023-03-08T12:34:37.697Z,1.00
2023-03-08T12:37:39.617Z,0.85
2023-03-08T12:40:42.480Z,0.83
2023-03-08T12:43:44.498Z,0.70
2023-03-08T12:47:01.467Z,0.74
2023-03-08T12:50:11.157Z,0.73
2023-03-08T12:53:23.574Z,0.76
2023-03-08T12:56:29.576Z,0.75
2023-03-08T12:59:36.332Z,0.82
2023-03-08T13:02:40.274Z,0.80
2023-03-08T13:05:45.677Z,0.76
2023-03-08T13:08:52.105Z,0.76
2023-03-08T13:11:58.009Z,0.76
2023-03-08T13:15:02.028Z,0.66
2023-03-08T13:18:11.224Z,0.70
2023-03-08T13:21:19.167Z,0.79
2023-03-08T13:24:25.171Z,0.79
2023-03-08T13:27:33.408Z,0.81
2023-03-08T13:30:37.247Z,0.77
2023-03-08T13:33:40.882Z,0.80
2023-03-08T13:36:48.170Z,0.76
2023-03-08T13:39:54.251Z,0.81
2023-03-08T13:42:57.417Z,0.80
2023-03-08T13:46:00.740Z,0.76
2023-03-08T13:49:02.578Z,0.73
2023-03-08T13:52:21.695Z,0.62
2023-03-08T13:55:26.368Z,0.56
2023-03-08T13:58:32.239Z,0.66
2023-03-08T14:01:33.950Z,0.66
2023-03-08T14:04:35.795Z,0.56
2023-03-08T14:07:38.812Z,0.53
2023-03-08T14:10:44.643Z,0.54
2023-03-08T14:13:48.025Z,0.63
2023-03-08T14:16:52.322Z,0.66
2023-03-08T14:19:55.178Z,0.53
2023-03-08T14:22:58.688Z,0.43
2023-03-08T14:26:00.510Z,0.45
2023-03-08T14:29:04.107Z,0.43
2023-03-08T14:32:07.149Z,0.40
2023-03-08T14:35:16.328Z,0.32
2023-03-08T14:38:23.431Z,0.36
2023-03-08T14:41:32.209Z,0.42
2023-03-08T14:44:33.900Z,0.40
2023-03-08T14:47:35.801Z,0.31
2023-03-08T14:50:37.742Z,0.31
2023-03-08T14:53:41.990Z,0.24
2023-03-08T14:56:43.733Z,0.23
2023-03-08T14:59:45.742Z,0.17
2023-03-08T15:02:47.397Z,0.20
2023-03-08T15:05:49.266Z,0.22
2023-03-08T15:08:52.975Z,0.26
2023-03-08T15:11:58.678Z,0.25
2023-03-08T15:15:00.865Z,0.21
2023-03-08T15:18:02.532Z,0.22
2023-03-08T15:21:04.396Z,0.20
2023-03-08T15:24:10.737Z,0.11
2023-03-08T15:27:14.530Z,0.14
2023-03-08T15:30:17.016Z,0.21
2023-03-08T15:33:18.697Z,0.17
2023-03-08T15:36:20.483Z,0.13
2023-03-08T15:39:24.279Z,0.07
2023-03-08T15:42:27.212Z,0.07
2023-03-08T15:45:28.924Z,0.12
2023-03-08T15:48:30.706Z,0.12
2023-03-08T15:51:33.279Z,0.12
2023-03-08T15:54:36.429Z,0.10
2023-03-08T15:57:38.358Z,0.09
2023-03-08T16:00:39.976Z,0.08
2023-03-08T16:03:41.900Z,0.06
2023-03-08T16:06:43.930Z,0.06
2023-03-08T16:09:47.024Z,0.05
2023-03-08T16:12:48.774Z,0.07
2023-03-08T16:15:50.679Z,0.08
2023-03-08T16:18:52.513Z,-0.02
2023-03-08T16:21:54.247Z,-0.02
2023-03-08T16:24:57.303Z,-0.05
2023-03-08T16:27:59.042Z,-0.04
2023-03-08T16:31:00.744Z,-0.04
2023-03-08T16:34:02.614Z,-0.04
2023-03-08T16:37:05.609Z,-0.07
2023-03-08T16:40:09.690Z,-0.10
2023-03-08T16:43:14.159Z,-0.17
2023-03-08T16:46:17.216Z,-0.20
2023-03-08T16:49:19.844Z,-0.22
2023-03-08T16:52:21.627Z,-0.16
2023-03-08T16:55:25.040Z,-0.08
2023-03-08T16:58:26.620Z,-0.15
2023-03-08T17:01:28.964Z,-0.18
2023-03-08T17:04:30.722Z,-0.20
2023-03-08T17:07:32.544Z,-0.19
2023-03-08T17:10:38.092Z,-0.22
2023-03-08T17:13:39.703Z,-0.26
2023-03-08T17:16:41.367Z,-0.26
2023-03-08T17:19:43.084Z,-0.27
2023-03-08T17:22:45.099Z,-0.25
2023-03-08T17:25:48.264Z,-0.28
2023-03-08T17:28:50.603Z,-0.33
2023-03-08T17:31:52.398Z,-0.36
2023-03-08T17:34:54.110Z,-0.39
2023-03-08T17:37:55.736Z,-0.37
2023-03-08T17:40:59.489Z,-0.29
2023-03-08T17:44:01.125Z,-0.28
2023-03-08T17:47:02.957Z,-0.33
2023-03-08T17:50:05.276Z,-0.37
2023-03-08T17:53:11.547Z,-0.32
2023-03-08T17:56:16.445Z,-0.32
2023-03-08T17:59:18.073Z,-0.35
2023-03-08T18:02:20.004Z,-0.39
2023-03-08T18:05:21.704Z,-0.36
2023-03-08T18:08:23.400Z,-0.37
2023-03-08T18:11:26.622Z,-0.35
2023-03-08T18:14:39.261Z,-0.31
2023-03-08T18:17:41.565Z,-0.32
2023-03-08T18:20:43.278Z,-0.31
2023-03-08T18:23:45.432Z,-0.28
2023-03-08T18:26:48.423Z,-0.30
2023-03-08T18:29:50.110Z,-0.34
2023-03-08T18:32:51.644Z,-0.37
2023-03-08T18:35:57.127Z,-0.34
2023-03-08T18:38:58.786Z,-0.36
2023-03-08T18:42:02.260Z,-0.35
2023-03-08T18:45:07.106Z,-0.41
2023-03-08T18:48:08.707Z,-0.38
2023-03-08T18:51:10.712Z,-0.35
2023-03-08T18:54:15.715Z,-0.39
2023-03-08T18:57:18.681Z,-0.37
2023-03-08T19:00:20.835Z,-0.42
2023-03-08T19:03:22.414Z,-0.42
2023-03-08T19:06:24.101Z,-0.44
2023-03-08T19:09:25.712Z,-0.36
2023-03-08T19:12:30.126Z,-0.40
2023-03-08T19:15:35.070Z,-0.35
2023-03-08T19:18:36.910Z,-0.37
2023-03-08T19:21:41.409Z,-0.42
2023-03-08T19:24:43.126Z,-0.39
2023-03-08T19:27:46.624Z,-0.38
2023-03-08T19:30:48.260Z,-0.41
2023-03-08T19:33:49.891Z,-0.37
2023-03-08T19:36:51.557Z,-0.40
2023-03-08T19:39:53.577Z,-0.40
2023-03-08T19:42:57.258Z,-0.44
2023-03-08T19:46:00.409Z,-0.42
2023-03-08T19:49:02.174Z,-0.36
2023-03-08T19:52:05.822Z,-0.41
2023-03-08T19:55:07.854Z,-0.38
2023-03-08T19:58:11.756Z,-0.28
2023-03-08T20:01:14.806Z,-0.26
2023-03-08T20:04:16.495Z,-0.28
2023-03-08T20:07:18.052Z,-0.32
2023-03-08T20:10:19.940Z,-0.35
2023-03-08T20:13:23.028Z,-0.37
2023-03-08T20:16:25.077Z,-0.37
2023-03-08T20:19:26.760Z,-0.36
2023-03-08T20:22:28.355Z,-0.34
2023-03-08T20:25:30.026Z,-0.35
2023-03-08T20:28:33.136Z,-0.37
2023-03-08T20:31:34.679Z,-0.37
2023-03-08T20:34:36.215Z,-0.34
2023-03-08T20:37:37.808Z,-0.35
2023-03-08T20:40:39.842Z,-0.44
2023-03-08T20:43:43.541Z,-0.38
2023-03-08T20:46:45.500Z,-0.36
2023-03-08T20:49:47.271Z,-0.40
2023-03-08T20:52:49.055Z,-0.40
2023-03-08T20:55:50.770Z,-0.36
2023-03-08T20:58:56.585Z,-0.42
2023-03-08T21:01:58.268Z,-0.34
2023-03-08T21:05:01.021Z,-0.35
2023-03-08T21:08:03.047Z,-0.35
2023-03-08T21:11:04.888Z,-0.37
2023-03-08T21:14:07.986Z,-0.32
2023-03-08T21:17:15.345Z,-0.34
2023-03-08T21:20:17.209Z,-0.35
2023-03-08T21:23:23.082Z,-0.36
2023-03-08T21:26:25.988Z,-0.39
2023-03-08T21:29:29.961Z,-0.41
2023-03-08T21:32:32.307Z,-0.36
2023-03-08T21:35:37.331Z,-0.36
2023-03-08T21:38:39.347Z,-0.32
2023-03-08T21:41:42.586Z,-0.29
2023-03-08T21:44:45.445Z,-0.33
2023-03-08T21:47:47.195Z,-0.34
2023-03-08T21:50:49.783Z,-0.37
2023-03-08T21:53:51.553Z,-0.39
2023-03-08T21:56:53.530Z,-0.37
2023-03-08T21:59:59.589Z,-0.34
2023-03-08T22:03:01.520Z,-0.32
2023-03-08T22:06:03.123Z,-0.35
2023-03-08T22:09:05.301Z,-0.33
2023-03-08T22:12:07.500Z,-0.34
2023-03-08T22:15:12.137Z,-0.31
2023-03-08T22:18:13.754Z,-0.31
2023-03-08T22:21:15.717Z,-0.34
2023-03-08T22:24:17.719Z,-0.31
2023-03-08T22:27:19.296Z,-0.26
2023-03-08T22:30:22.808Z,-0.27
2023-03-08T22:33:24.676Z,-0.32
2023-03-08T22:36:26.384Z,-0.33
2023-03-08T22:39:30.840Z,-0.30
2023-03-08T22:42:33.127Z,-0.31
2023-03-08T22:45:36.140Z,-0.37
2023-03-08T22:48:38.224Z,-0.35
2023-03-08T22:51:41.456Z,-0.34
2023-03-08T22:54:43.360Z,-0.28
2023-03-08T22:57:45.020Z,-0.32
2023-03-08T23:00:48.323Z,-0.34
2023-03-08T23:03:50.018Z,-0.38
2023-03-08T23:06:51.807Z,-0.41
2023-03-08T23:09:53.540Z,-0.34
2023-03-08T23:12:56.046Z,-0.31
2023-03-08T23:15:59.359Z,-0.32
2023-03-08T23:19:01.521Z,-0.34
2023-03-08T23:22:03.918Z,-0.35
2023-03-08T23:25:06.471Z,-0.43
2023-03-08T23:28:08.176Z,-0.35
2023-03-08T23:31:12.073Z,-0.37
2023-03-08T23:34:13.687Z,-0.36
2023-03-08T23:37:15.303Z,-0.38
2023-03-08T23:40:16.934Z,-0.44
2023-03-08T23:43:18.658Z,-0.42
2023-03-08T23:46:21.794Z,-0.40
2023-03-08T23:49:23.514Z,-0.40
2023-03-08T23:52:25.582Z,-0.42
2023-03-08T23:55:28.083Z,-0.45
2023-03-08T23:58:31.879Z,-0.44
